Time;durP1;ratioP1;P1;durP2;ratioP2;P2;SDS_P1;SDS_P2;PMS_P1;PMS_P2;Temp;Humidity;BMP_temperature;BMP_pressure;BME280_temperature;BME280_humidity;BME280_pressure;Samples;Min_cycle;Max_cycle;Signal;HPM_P1;HPM_P2
2024/02/03 00:00:34;;;;;;;53.23;25.83;;;-1.50;99.90;;;;;;4227897;27;20252;-63
2024/02/03 00:02:35;;;;;;;52.93;27.40;;;-1.50;99.90;;;;;;4230204;28;20325;-62
2024/02/03 00:04:36;;;;;;;63.47;28.17;;;-1.40;99.90;;;;;;4229196;27;20309;-63
2024/02/03 00:06:38;;;;;;;63.00;28.77;;;-1.40;99.90;;;;;;4229995;28;20284;-63
2024/02/03 00:08:39;;;;;;;70.57;32.27;;;-1.50;99.90;;;;;;4228813;27;20345;-62
2024/02/03 00:10:40;;;;;;;69.50;31.30;;;-1.40;99.90;;;;;;4229898;28;20272;-62
2024/02/03 00:12:45;;;;;;;60.90;29.90;;;-1.40;99.90;;;;;;4229207;28;20325;-62
2024/02/03 00:14:46;;;;;;;73.47;30.90;;;-1.40;99.90;;;;;;4229689;28;20256;-62
2024/02/03 00:16:47;;;;;;;69.83;31.60;;;-1.50;99.90;;;;;;4227622;28;20744;-62
2024/02/03 00:18:49;;;;;;;60.60;28.43;;;-1.50;99.90;;;;;;4229305;27;20284;-60
2024/02/03 00:20:50;;;;;;;69.73;29.63;;;-1.50;99.90;;;;;;4211090;28;20281;-62
2024/02/03 00:22:51;;;;;;;65.47;29.97;;;-1.50;99.90;;;;;;4211820;28;20426;-62
2024/02/03 00:24:53;;;;;;;59.00;30.00;;;-1.40;99.90;;;;;;4212618;28;20756;-62
2024/02/03 00:26:54;;;;;;;59.93;28.30;;;-1.40;99.90;;;;;;4211628;28;20304;-62
2024/02/03 00:28:55;;;;;;;63.07;30.67;;;-1.40;99.90;;;;;;4212767;28;20318;-62
2024/02/03 00:30:57;;;;;;;62.73;29.60;;;-1.40;99.90;;;;;;4212017;28;20281;-61
2024/02/03 00:32:58;;;;;;;61.07;28.93;;;-1.30;99.90;;;;;;4213672;28;20310;-61
2024/02/03 00:34:59;;;;;;;74.67;31.50;;;-1.30;99.90;;;;;;4228424;28;20325;-62
2024/02/03 00:37:01;;;;;;;66.33;32.90;;;-1.30;99.90;;;;;;4229757;27;20324;-61
2024/02/03 00:39:03;;;;;;;64.13;30.97;;;-1.30;99.90;;;;;;4228574;28;20279;-62
2024/02/03 00:41:04;;;;;;;56.93;27.53;;;-1.30;99.90;;;;;;4228783;28;20252;-62
2024/02/03 00:43:05;;;;;;;67.50;28.43;;;-1.30;99.90;;;;;;4228448;27;20752;-61
2024/02/03 00:45:07;;;;;;;65.03;28.23;;;-1.30;99.90;;;;;;4228643;28;20276;-62
2024/02/03 00:47:08;;;;;;;60.97;28.83;;;-1.20;99.90;;;;;;4228243;28;20299;-59
2024/02/03 00:49:09;;;;;;;62.67;29.27;;;-1.20;99.90;;;;;;4228360;28;20279;-62
2024/02/03 00:51:11;;;;;;;56.13;26.90;;;-1.10;99.90;;;;;;4228940;28;20908;-61
2024/02/03 00:53:13;;;;;;;48.27;24.23;;;-1.10;99.90;;;;;;4228584;28;20321;-61
2024/02/03 00:55:14;;;;;;;46.70;23.30;;;-1.10;99.90;;;;;;4229138;27;20759;-61
2024/02/03 00:57:15;;;;;;;40.50;20.10;;;-1.10;99.90;;;;;;4228034;28;20317;-61
2024/02/03 00:59:16;;;;;;;40.67;19.80;;;-1.10;99.90;;;;;;4229156;28;20264;-61
2024/02/03 01:01:18;;;;;;;37.47;20.23;;;-1.20;99.90;;;;;;4228202;28;20276;-62
2024/02/03 01:03:19;;;;;;;42.87;19.83;;;-1.20;99.90;;;;;;4229199;28;20313;-61
2024/02/03 01:05:21;;;;;;;48.93;20.27;;;-1.20;99.90;;;;;;4227970;28;20272;-61
2024/02/03 01:07:22;;;;;;;41.67;18.53;;;-1.10;99.90;;;;;;4228946;28;20292;-63
2024/02/03 01:09:24;;;;;;;39.60;20.07;;;-1.10;99.90;;;;;;4227543;28;21188;-62
2024/02/03 01:11:25;;;;;;;37.80;19.17;;;-1.10;99.90;;;;;;4228187;27;20657;-61
2024/02/03 01:13:27;;;;;;;34.83;17.23;;;-1.00;99.90;;;;;;4227906;28;20313;-60
2024/02/03 01:15:28;;;;;;;34.60;18.53;;;-1.00;99.90;;;;;;4228937;28;20315;-61
2024/02/03 01:17:29;;;;;;;43.37;18.90;;;-1.00;99.90;;;;;;4227766;28;20244;-61
2024/02/03 01:19:31;;;;;;;37.33;19.17;;;-1.10;99.90;;;;;;4228836;28;21360;-62
2024/02/03 01:21:32;;;;;;;40.70;19.43;;;-1.20;99.90;;;;;;4227801;28;20775;-63
2024/02/03 01:23:33;;;;;;;41.33;20.17;;;-1.30;99.90;;;;;;4227082;28;20629;-63
2024/02/03 01:25:35;;;;;;;44.57;21.83;;;-1.30;99.90;;;;;;4228194;28;20248;-62
2024/02/03 01:27:36;;;;;;;49.93;24.03;;;-1.30;99.90;;;;;;4227295;28;20574;-62
2024/02/03 01:29:37;;;;;;;54.73;25.80;;;-1.30;99.90;;;;;;4228523;28;20716;-62
2024/02/03 01:31:39;;;;;;;51.83;25.87;;;-1.30;99.90;;;;;;4227523;28;20268;-61
2024/02/03 01:33:40;;;;;;;54.30;25.67;;;-1.30;99.90;;;;;;4228424;27;20264;-60
2024/02/03 01:35:41;;;;;;;52.63;26.80;;;-1.40;99.90;;;;;;4226360;28;20252;-60
2024/02/03 01:37:42;;;;;;;59.90;27.37;;;-1.30;99.90;;;;;;4228171;28;20328;-60
2024/02/03 01:39:44;;;;;;;58.63;26.17;;;-1.30;99.90;;;;;;4227746;27;20284;-60
2024/02/03 01:41:45;;;;;;;56.83;24.93;;;-1.30;99.90;;;;;;4229105;28;20333;-61
2024/02/03 01:43:46;;;;;;;61.47;26.73;;;-1.30;99.90;;;;;;4227576;27;20706;-62
2024/02/03 01:45:48;;;;;;;50.73;24.23;;;-1.20;99.90;;;;;;4228702;28;20284;-61
2024/02/03 01:47:49;;;;;;;58.23;26.93;;;-1.10;99.90;;;;;;4227021;28;20296;-61
2024/02/03 01:49:52;;;;;;;54.10;25.90;;;-1.10;99.90;;;;;;4227514;28;20256;-61
2024/02/03 01:51:54;;;;;;;59.60;24.93;;;-1.10;99.90;;;;;;4227320;28;20313;-61
2024/02/03 01:53:57;;;;;;;53.87;25.90;;;-1.10;99.90;;;;;;4228306;28;20275;-61
2024/02/03 01:55:59;;;;;;;54.30;25.33;;;-1.00;99.90;;;;;;4227673;28;20260;-60
2024/02/03 01:58:02;;;;;;;45.07;21.93;;;-1.10;99.90;;;;;;4227708;28;20309;-60
2024/02/03 02:00:05;;;;;;;46.33;23.33;;;-1.10;99.90;;;;;;4227660;28;20704;-61
2024/02/03 02:02:06;;;;;;;45.93;22.30;;;-1.10;99.90;;;;;;4226247;28;20272;-61
2024/02/03 02:04:07;;;;;;;47.40;22.93;;;-1.10;99.90;;;;;;4228111;28;20275;-62
2024/02/03 02:06:09;;;;;;;41.37;20.83;;;-1.10;99.90;;;;;;4227166;28;20337;-62
2024/02/03 02:08:10;;;;;;;38.17;20.27;;;-1.10;99.90;;;;;;4228514;28;20280;-61
2024/02/03 02:10:12;;;;;;;47.93;21.27;;;-1.10;99.90;;;;;;4227153;28;20377;-61
2024/02/03 02:12:14;;;;;;;41.37;20.33;;;-1.00;99.90;;;;;;4228885;28;20268;-61
2024/02/03 02:14:15;;;;;;;41.40;19.43;;;-0.90;99.90;;;;;;4227000;28;20252;-62
2024/02/03 02:16:17;;;;;;;35.83;18.87;;;-0.90;99.90;;;;;;4228499;28;20329;-62
2024/02/03 02:18:18;;;;;;;41.43;20.73;;;-0.90;99.90;;;;;;4226891;28;20321;-61
2024/02/03 02:20:19;;;;;;;38.63;19.17;;;-0.90;99.90;;;;;;4228345;28;20716;-61
2024/02/03 02:22:21;;;;;;;39.77;19.47;;;-0.90;99.90;;;;;;4210473;28;20303;-63
2024/02/03 02:24:22;;;;;;;44.17;21.37;;;-0.90;99.90;;;;;;4210720;28;20273;-61
2024/02/03 02:26:24;;;;;;;38.30;20.50;;;-0.90;99.90;;;;;;4210152;28;20694;-61
2024/02/03 02:28:25;;;;;;;40.93;20.80;;;-1.00;99.90;;;;;;4226504;28;20333;-63
2024/02/03 02:30:26;;;;;;;41.60;20.60;;;-0.90;99.90;;;;;;4227040;28;20260;-61
2024/02/03 02:32:27;;;;;;;46.60;20.93;;;-0.90;99.90;;;;;;4227412;28;20305;-62
2024/02/03 02:34:29;;;;;;;44.57;21.33;;;-0.90;99.90;;;;;;4227481;28;20301;-61
2024/02/03 02:36:30;;;;;;;48.37;24.23;;;-1.00;99.90;;;;;;4226922;28;20301;-62
2024/02/03 02:38:31;;;;;;;56.37;26.30;;;-1.10;99.90;;;;;;4227302;28;20268;-62
2024/02/03 02:40:33;;;;;;;55.43;26.37;;;-1.10;99.90;;;;;;4228644;28;20271;-61
2024/02/03 02:42:34;;;;;;;54.77;27.40;;;-1.10;99.90;;;;;;4231628;28;20788;-62
2024/02/03 02:44:35;;;;;;;56.00;26.23;;;-1.10;99.90;;;;;;4230144;28;20260;-62
2024/02/03 02:46:37;;;;;;;58.43;27.10;;;-1.10;99.90;;;;;;4231187;28;20283;-62
2024/02/03 02:48:38;;;;;;;57.17;27.80;;;-1.10;99.90;;;;;;4229776;28;20260;-60
2024/02/03 02:50:39;;;;;;;56.80;27.03;;;-1.10;99.90;;;;;;4231173;28;20333;-61
2024/02/03 02:52:40;;;;;;;57.83;28.03;;;-1.10;99.90;;;;;;4229923;28;20301;-61
2024/02/03 02:54:42;;;;;;;51.70;25.60;;;-1.10;99.90;;;;;;4231595;27;20364;-60
2024/02/03 02:56:43;;;;;;;56.67;25.67;;;-1.00;99.90;;;;;;4230357;28;20268;-62
2024/02/03 02:58:44;;;;;;;55.77;26.43;;;-1.00;99.90;;;;;;4230943;28;20317;-62
2024/02/03 03:00:46;;;;;;;62.70;27.40;;;-1.00;99.90;;;;;;4228645;28;20272;-63
2024/02/03 03:02:47;;;;;;;55.97;26.10;;;-1.00;99.90;;;;;;4230267;27;20349;-61
2024/02/03 03:04:48;;;;;;;54.70;25.83;;;-1.00;99.90;;;;;;4229605;28;20264;-61
2024/02/03 03:06:49;;;;;;;54.23;26.03;;;-1.00;99.90;;;;;;4229938;28;20295;-62
2024/02/03 03:08:50;;;;;;;54.77;27.00;;;-0.90;99.90;;;;;;4230844;28;20268;-61
2024/02/03 03:10:52;;;;;;;57.90;26.80;;;-0.90;99.90;;;;;;4229766;28;20252;-61
2024/02/03 03:12:53;;;;;;;54.50;25.73;;;-0.90;99.90;;;;;;4231129;28;20313;-62
2024/02/03 03:14:54;;;;;;;56.97;26.33;;;-0.80;99.90;;;;;;4229648;28;20581;-62
2024/02/03 03:16:55;;;;;;;62.23;28.77;;;-0.70;99.90;;;;;;4230658;28;20317;-61
2024/02/03 03:18:56;;;;;;;64.80;29.17;;;-0.70;99.90;;;;;;4229499;28;20256;-61
2024/02/03 03:21:01;;;;;;;59.27;25.67;;;-0.70;99.90;;;;;;4230684;28;20314;-61
2024/02/03 03:23:02;;;;;;;48.10;23.40;;;-0.60;99.90;;;;;;4229120;27;20283;-61
2024/02/03 03:25:04;;;;;;;51.63;24.87;;;-0.60;99.90;;;;;;4230665;28;20336;-62
2024/02/03 03:27:05;;;;;;;46.27;23.80;;;-0.70;99.90;;;;;;4229279;27;20287;-61
2024/02/03 03:29:07;;;;;;;46.10;22.97;;;-0.70;99.90;;;;;;4230546;28;20268;-62
2024/02/03 03:31:09;;;;;;;54.87;24.83;;;-0.80;99.90;;;;;;4229156;28;20305;-61
2024/02/03 03:33:10;;;;;;;49.70;23.63;;;-0.90;99.90;;;;;;4230098;28;20279;-61
2024/02/03 03:35:11;;;;;;;44.67;22.43;;;-0.90;99.90;;;;;;4229632;28;20284;-61
2024/02/03 03:37:12;;;;;;;51.73;22.67;;;-0.90;99.90;;;;;;4229350;28;20284;-61
2024/02/03 03:39:14;;;;;;;44.47;21.60;;;-0.90;99.90;;;;;;4229726;27;20260;-61
2024/02/03 03:41:15;;;;;;;44.70;20.27;;;-0.80;99.90;;;;;;4229437;28;20360;-62
2024/02/03 03:43:16;;;;;;;38.03;19.83;;;-0.90;99.90;;;;;;4230827;27;20337;-61
2024/02/03 03:45:17;;;;;;;41.73;19.90;;;-0.90;99.90;;;;;;4229161;28;20268;-61
2024/02/03 03:47:21;;;;;;;37.87;18.37;;;-0.90;99.90;;;;;;4230625;27;20364;-62
2024/02/03 03:49:22;;;;;;;37.87;19.20;;;-0.90;99.90;;;;;;4229425;27;20290;-63
2024/02/03 03:51:23;;;;;;;35.20;17.97;;;-0.90;99.90;;;;;;4229965;28;21080;-61
2024/02/03 03:53:24;;;;;;;44.23;19.73;;;-0.80;99.90;;;;;;4228997;28;20272;-61
2024/02/03 03:55:26;;;;;;;42.93;20.97;;;-0.80;99.90;;;;;;4230254;27;20321;-62
2024/02/03 03:57:27;;;;;;;40.73;18.83;;;-0.80;99.90;;;;;;4228860;28;20650;-62
2024/02/03 03:59:28;;;;;;;41.37;19.60;;;-0.80;99.90;;;;;;4230196;28;20971;-61
2024/02/03 04:01:29;;;;;;;40.97;19.60;;;-0.90;99.90;;;;;;4229382;27;20272;-61
2024/02/03 04:03:30;;;;;;;43.67;20.57;;;-1.00;99.90;;;;;;4229706;28;20276;-61
2024/02/03 04:05:32;;;;;;;42.50;20.10;;;-1.00;99.90;;;;;;4229021;28;20248;-61
2024/02/03 04:07:33;;;;;;;36.47;19.23;;;-0.90;99.90;;;;;;4229518;28;20287;-61
2024/02/03 04:09:34;;;;;;;45.00;21.57;;;-0.90;99.90;;;;;;4229400;28;20723;-62
2024/02/03 04:11:36;;;;;;;39.03;21.77;;;-0.90;99.90;;;;;;4228465;28;20684;-61
2024/02/03 04:13:40;;;;;;;43.57;21.87;;;-1.00;99.90;;;;;;4229885;28;20317;-61
2024/02/03 04:15:42;;;;;;;42.70;22.27;;;-1.00;99.90;;;;;;4229039;27;20317;-62
2024/02/03 04:17:43;;;;;;;45.20;23.00;;;-1.00;99.90;;;;;;4229533;28;20784;-62
2024/02/03 04:19:44;;;;;;;45.40;23.10;;;-1.00;99.90;;;;;;4228468;28;20264;-61
2024/02/03 04:21:45;;;;;;;42.77;22.70;;;-1.00;99.90;;;;;;4228819;27;20610;-61
2024/02/03 04:23:46;;;;;;;51.57;25.50;;;-1.00;99.90;;;;;;4228072;28;20800;-62
2024/02/03 04:25:48;;;;;;;52.03;25.73;;;-1.00;99.90;;;;;;4229466;28;20279;-63
2024/02/03 04:27:49;;;;;;;53.40;25.73;;;-1.00;99.90;;;;;;4228512;27;20292;-62
2024/02/03 04:29:50;;;;;;;53.03;26.87;;;-1.00;99.90;;;;;;4229668;28;20651;-61
2024/02/03 04:31:51;;;;;;;62.40;29.40;;;-1.00;99.90;;;;;;4228709;27;20260;-61
2024/02/03 04:33:52;;;;;;;61.00;27.93;;;-1.10;99.90;;;;;;4229627;28;20607;-61
2024/02/03 04:35:54;;;;;;;50.33;27.60;;;-1.10;99.90;;;;;;4228443;27;20275;-62
2024/02/03 04:38:01;;;;;;;56.23;27.90;;;-1.10;99.90;;;;;;4228989;28;20268;-62
2024/02/03 04:40:06;;;;;;;60.13;28.50;;;-1.10;99.90;;;;;;4226657;28;20256;-59
2024/02/03 04:42:07;;;;;;;64.30;30.20;;;-1.00;99.90;;;;;;4228775;28;20313;-61
2024/02/03 04:44:09;;;;;;;55.80;27.57;;;-1.00;99.90;;;;;;4228954;28;20666;-62
2024/02/03 04:46:10;;;;;;;57.97;27.57;;;-1.10;99.90;;;;;;4228695;28;20260;-61
2024/02/03 04:48:11;;;;;;;54.93;28.30;;;-1.10;99.90;;;;;;4228392;28;20344;-61
2024/02/03 04:50:12;;;;;;;59.20;27.20;;;-1.00;99.90;;;;;;4228390;28;20743;-61
2024/02/03 04:52:14;;;;;;;54.80;26.83;;;-1.00;99.90;;;;;;4229215;28;20275;-61
2024/02/03 04:54:15;;;;;;;49.60;24.77;;;-1.10;99.90;;;;;;4227902;28;20747;-61
2024/02/03 04:56:16;;;;;;;55.40;25.17;;;-1.10;99.90;;;;;;4229387;28;20638;-64
2024/02/03 04:58:18;;;;;;;53.47;27.27;;;-1.20;99.90;;;;;;4227961;27;20666;-61
2024/02/03 05:00:20;;;;;;;60.73;29.57;;;-1.20;99.90;;;;;;4229174;28;20264;-62
2024/02/03 05:02:21;;;;;;;55.00;27.57;;;-1.10;99.90;;;;;;4227035;28;20256;-63
2024/02/03 05:04:22;;;;;;;58.53;28.70;;;-1.10;99.90;;;;;;4228825;28;20650;-61
2024/02/03 05:06:23;;;;;;;53.93;26.53;;;-1.10;99.90;;;;;;4227922;28;20321;-61
2024/02/03 05:08:25;;;;;;;50.17;26.30;;;-1.10;99.90;;;;;;4228911;28;20377;-61
2024/02/03 05:10:26;;;;;;;56.70;27.07;;;-1.00;99.90;;;;;;4227948;28;21344;-62
2024/02/03 05:12:27;;;;;;;48.23;25.30;;;-1.00;99.90;;;;;;4228723;28;20674;-61
2024/02/03 05:14:28;;;;;;;56.50;28.57;;;-0.90;99.90;;;;;;4227581;27;20256;-61
2024/02/03 05:16:29;;;;;;;58.57;29.67;;;-0.90;99.90;;;;;;4228257;28;20263;-62
2024/02/03 05:18:30;;;;;;;53.00;27.17;;;-0.90;99.90;;;;;;4227502;28;20294;-62
2024/02/03 05:20:32;;;;;;;56.03;26.43;;;-0.90;99.90;;;;;;4227909;28;20682;-61
2024/02/03 05:22:33;;;;;;;53.30;27.57;;;-0.90;99.90;;;;;;4228099;28;20288;-61
2024/02/03 05:24:34;;;;;;;58.60;27.77;;;-0.90;99.90;;;;;;4227335;28;20321;-61
2024/02/03 05:26:35;;;;;;;47.87;25.37;;;-0.90;99.90;;;;;;4227454;28;20276;-61
2024/02/03 05:28:36;;;;;;;56.70;26.63;;;-0.90;99.90;;;;;;4227110;28;20333;-62
2024/02/03 05:30:38;;;;;;;55.50;25.70;;;-0.90;99.90;;;;;;4228646;28;20271;-61
2024/02/03 05:32:39;;;;;;;58.80;27.47;;;-0.90;99.90;;;;;;4227602;28;20305;-61
2024/02/03 05:34:40;;;;;;;53.00;25.20;;;-1.00;99.90;;;;;;4227912;28;20256;-62
2024/02/03 05:36:41;;;;;;;54.33;26.53;;;-1.00;99.90;;;;;;4227438;28;20268;-61
2024/02/03 05:38:42;;;;;;;50.57;26.00;;;-0.90;99.90;;;;;;4227242;28;20740;-61
2024/02/03 05:40:44;;;;;;;62.10;26.60;;;-0.90;99.90;;;;;;4226021;28;20647;-62
2024/02/03 05:42:45;;;;;;;55.40;27.23;;;-0.90;99.90;;;;;;4228069;28;20272;-61
2024/02/03 05:44:46;;;;;;;50.97;27.60;;;-0.90;99.90;;;;;;4226970;28;20268;-62
2024/02/03 05:46:47;;;;;;;47.53;26.30;;;-0.90;99.90;;;;;;4227066;28;20690;-62
2024/02/03 05:48:48;;;;;;;52.93;26.30;;;-0.90;99.90;;;;;;4226869;28;20299;-62
2024/02/03 05:50:50;;;;;;;52.03;25.97;;;-0.80;99.90;;;;;;4226313;28;20317;-62
2024/02/03 05:52:51;;;;;;;51.33;24.77;;;-0.80;99.90;;;;;;4228102;28;20732;-61
2024/02/03 05:54:52;;;;;;;54.00;27.13;;;-0.80;99.90;;;;;;4227039;28;20677;-62
2024/02/03 05:56:53;;;;;;;51.30;26.40;;;-0.80;99.90;;;;;;4227146;28;20279;-61
2024/02/03 05:58:54;;;;;;;44.27;24.13;;;-0.70;99.90;;;;;;4225718;28;20268;-61
2024/02/03 06:00:56;;;;;;;50.40;24.73;;;-0.70;99.90;;;;;;4227740;28;20728;-61
2024/02/03 06:02:58;;;;;;;54.20;25.80;;;-0.70;99.90;;;;;;4226631;28;20325;-64
2024/02/03 06:05:01;;;;;;;44.30;23.27;;;-0.60;99.90;;;;;;4227216;28;20272;-62
2024/02/03 06:07:02;;;;;;;46.80;23.60;;;-0.60;99.90;;;;;;4226698;28;20268;-62
2024/02/03 06:09:04;;;;;;;49.83;22.63;;;-0.60;99.90;;;;;;4228080;28;20724;-62
2024/02/03 06:11:05;;;;;;;50.60;25.97;;;-0.60;99.90;;;;;;4224366;28;20272;-63
2024/02/03 06:13:06;;;;;;;53.53;26.37;;;-0.50;99.90;;;;;;4228582;28;20324;-62
2024/02/03 06:15:08;;;;;;;48.70;24.47;;;-0.50;99.90;;;;;;4230107;28;20276;-61
2024/02/03 06:17:09;;;;;;;48.80;24.53;;;-0.50;99.90;;;;;;4230800;27;20284;-62
2024/02/03 06:19:10;;;;;;;50.00;24.67;;;-0.40;99.90;;;;;;4230687;28;20337;-62
2024/02/03 06:21:12;;;;;;;49.77;24.93;;;-0.40;99.90;;;;;;4230828;28;20341;-62
2024/02/03 06:23:14;;;;;;;45.10;22.67;;;-0.40;99.90;;;;;;4230672;28;20275;-62
2024/02/03 06:25:15;;;;;;;49.83;24.87;;;-0.40;99.90;;;;;;4230624;28;20267;-63
2024/02/03 06:27:16;;;;;;;49.03;24.73;;;-0.30;99.90;;;;;;4231078;28;20313;-62
2024/02/03 06:29:18;;;;;;;50.77;23.23;;;-0.40;99.90;;;;;;4230468;28;20260;-63
2024/02/03 06:31:19;;;;;;;44.17;23.40;;;-0.40;99.90;;;;;;4230791;28;20333;-62
2024/02/03 06:33:20;;;;;;;48.33;25.40;;;-0.30;99.90;;;;;;4230062;28;20317;-62
2024/02/03 06:35:21;;;;;;;45.10;23.20;;;-0.30;99.90;;;;;;4230893;28;20325;-62
2024/02/03 06:37:22;;;;;;;58.43;28.03;;;-0.20;99.90;;;;;;4229354;28;20337;-62
2024/02/03 06:39:23;;;;;;;59.63;26.37;;;-0.20;99.90;;;;;;4230086;28;20256;-62
2024/02/03 06:41:25;;;;;;;46.77;25.10;;;-0.10;99.90;;;;;;4230017;27;20260;-62
2024/02/03 06:43:26;;;;;;;46.87;22.87;;;-0.10;99.90;;;;;;4231115;28;20615;-63
2024/02/03 06:45:28;;;;;;;46.70;23.17;;;-0.10;99.90;;;;;;4229523;27;20256;-62
2024/02/03 06:47:29;;;;;;;47.93;23.13;;;-0.10;99.90;;;;;;4230357;28;20786;-61
2024/02/03 06:49:30;;;;;;;51.87;24.50;;;0.00;99.90;;;;;;4229962;28;20292;-62
2024/02/03 06:51:31;;;;;;;56.13;24.83;;;0.00;99.90;;;;;;4230333;28;20345;-61
2024/02/03 06:53:32;;;;;;;49.80;23.80;;;-0.10;99.90;;;;;;4229880;27;20264;-62
2024/02/03 06:55:36;;;;;;;48.43;23.33;;;0.00;99.90;;;;;;4229315;27;20249;-62
2024/02/03 06:57:37;;;;;;;44.53;23.23;;;0.00;99.90;;;;;;4228249;28;20724;-63
2024/02/03 06:59:38;;;;;;;47.63;23.47;;;0.00;99.90;;;;;;4228946;28;20279;-62
2024/02/03 07:01:40;;;;;;;46.90;22.63;;;0.10;99.90;;;;;;4228538;28;20264;-62
2024/02/03 07:03:41;;;;;;;47.70;23.47;;;0.10;99.90;;;;;;4229206;28;20658;-62
2024/02/03 07:05:42;;;;;;;42.00;23.33;;;0.10;99.90;;;;;;4230445;28;20267;-62
2024/02/03 07:07:43;;;;;;;48.77;23.97;;;0.10;99.90;;;;;;4227977;27;20428;-62
2024/02/03 07:09:44;;;;;;;44.10;21.47;;;0.10;99.90;;;;;;4229771;28;20268;-62
2024/02/03 07:11:46;;;;;;;42.87;20.77;;;0.10;99.90;;;;;;4227824;28;20280;-62
2024/02/03 07:13:47;;;;;;;44.73;21.97;;;0.10;99.90;;;;;;4230605;28;20755;-62
2024/02/03 07:15:50;;;;;;;41.77;22.83;;;0.00;99.90;;;;;;4226827;28;20284;-62
2024/02/03 07:17:51;;;;;;;49.10;24.30;;;0.00;99.90;;;;;;4230900;27;20313;-62
2024/02/03 07:19:52;;;;;;;49.03;23.23;;;-0.10;99.90;;;;;;4229348;28;20310;-62
2024/02/03 07:21:53;;;;;;;45.40;23.27;;;-0.10;99.90;;;;;;4230555;28;20272;-63
2024/02/03 07:23:55;;;;;;;46.93;24.87;;;-0.10;99.90;;;;;;4229558;28;20256;-63
2024/02/03 07:25:56;;;;;;;50.83;24.83;;;-0.10;99.90;;;;;;4228973;28;20805;-60
2024/02/03 07:27:58;;;;;;;50.17;24.50;;;-0.10;99.90;;;;;;4229666;28;20697;-62
2024/02/03 07:29:59;;;;;;;47.20;23.23;;;0.00;99.90;;;;;;4228320;28;20680;-63
2024/02/03 07:32:01;;;;;;;46.10;24.47;;;0.00;99.90;;;;;;4228543;28;20835;-63
2024/02/03 07:34:02;;;;;;;47.17;23.40;;;0.00;99.90;;;;;;4226636;27;20341;-56
2024/02/03 07:36:04;;;;;;;48.77;24.60;;;0.00;99.90;;;;;;4230818;28;20703;-62
2024/02/03 07:38:05;;;;;;;47.50;22.57;;;0.00;99.90;;;;;;4228074;28;20276;-62
2024/02/03 07:40:07;;;;;;;53.00;25.80;;;0.00;99.90;;;;;;4223771;28;20716;-63
2024/02/03 07:42:08;;;;;;;52.70;26.30;;;0.00;99.90;;;;;;4212196;28;20264;-60
2024/02/03 07:44:09;;;;;;;48.17;25.57;;;0.00;99.90;;;;;;4213636;28;20277;-63
2024/02/03 07:46:11;;;;;;;50.27;25.37;;;0.00;99.90;;;;;;4221731;28;20272;-62
2024/02/03 07:48:12;;;;;;;53.17;26.20;;;0.00;99.90;;;;;;4230252;27;20759;-63
2024/02/03 07:50:14;;;;;;;51.73;26.33;;;0.10;99.90;;;;;;4229187;28;20735;-63
2024/02/03 07:52:15;;;;;;;48.53;26.23;;;0.10;99.90;;;;;;4229519;28;20268;-62
2024/02/03 07:54:16;;;;;;;49.37;25.03;;;0.10;99.90;;;;;;4228982;27;20257;-65
2024/02/03 07:56:17;;;;;;;78.27;35.23;;;0.10;99.90;;;;;;4227644;28;20276;-61
2024/02/03 07:58:19;;;;;;;50.13;25.27;;;0.00;99.90;;;;;;4229075;28;20240;-63
2024/02/03 08:00:20;;;;;;;50.00;25.67;;;0.10;99.90;;;;;;4229103;28;20324;-58
2024/02/03 08:02:21;;;;;;;47.57;24.47;;;0.10;99.90;;;;;;4225235;27;20644;-62
2024/02/03 08:04:23;;;;;;;50.07;27.47;;;0.10;99.90;;;;;;4228506;28;20728;-64
2024/02/03 08:06:24;;;;;;;56.10;29.20;;;0.20;99.90;;;;;;4229545;28;20348;-63
2024/02/03 08:08:25;;;;;;;55.30;28.73;;;0.20;99.90;;;;;;4227511;28;20393;-61
2024/02/03 08:10:28;;;;;;;54.87;28.37;;;0.20;99.90;;;;;;4229678;28;20780;-62
2024/02/03 08:12:31;;;;;;;55.67;30.27;;;0.30;99.90;;;;;;4228472;28;20654;-62
2024/02/03 08:14:32;;;;;;;53.37;29.43;;;0.30;99.90;;;;;;4230700;28;20321;-64
2024/02/03 08:16:33;;;;;;;54.67;28.97;;;0.30;99.90;;;;;;4227390;28;20268;-63
2024/02/03 08:18:34;;;;;;;57.67;30.33;;;0.30;99.90;;;;;;4229096;28;20345;-61
2024/02/03 08:20:36;;;;;;;58.43;30.47;;;0.40;99.90;;;;;;4226661;28;20279;-63
2024/02/03 08:22:37;;;;;;;54.60;30.43;;;0.40;99.90;;;;;;4229436;28;20291;-61
2024/02/03 08:24:38;;;;;;;55.97;30.40;;;0.40;99.90;;;;;;4228147;28;20268;-62
2024/02/03 08:26:39;;;;;;;50.80;28.27;;;0.50;99.90;;;;;;4229192;28;20276;-62
2024/02/03 08:28:40;;;;;;;57.13;30.07;;;0.50;99.90;;;;;;4228616;27;20353;-63
2024/02/03 08:30:42;;;;;;;55.00;25.47;;;0.50;99.90;;;;;;4228432;28;20316;-62
2024/02/03 08:32:43;;;;;;;48.90;26.60;;;0.60;99.90;;;;;;4228730;28;20273;-63
2024/02/03 08:34:44;;;;;;;52.43;28.10;;;0.80;99.90;;;;;;4228879;28;20344;-61
2024/02/03 08:36:45;;;;;;;52.33;28.10;;;0.90;99.90;;;;;;4228538;27;20790;-62
2024/02/03 08:38:47;;;;;;;57.70;28.93;;;1.00;99.90;;;;;;4227497;28;20260;-62
2024/02/03 08:40:49;;;;;;;51.33;27.00;;;1.10;99.90;;;;;;4229465;28;20638;-63
2024/02/03 08:42:50;;;;;;;55.97;27.87;;;1.20;99.90;;;;;;4227417;28;20683;-64
2024/02/03 08:44:51;;;;;;;46.17;24.83;;;1.20;99.90;;;;;;4229103;27;20313;-61
2024/02/03 08:46:52;;;;;;;53.40;26.90;;;1.40;99.90;;;;;;4227154;28;20260;-61
2024/02/03 08:48:53;;;;;;;50.30;25.43;;;1.40;99.90;;;;;;4228366;28;20300;-61
2024/02/03 08:50:56;;;;;;;44.97;25.10;;;1.50;99.90;;;;;;4211262;28;20736;-61
2024/02/03 08:52:57;;;;;;;64.10;32.63;;;1.60;99.90;;;;;;4227093;28;20283;-60
2024/02/03 08:55:00;;;;;;;50.27;27.73;;;1.60;99.90;;;;;;4227376;28;20329;-61
2024/02/03 08:57:01;;;;;;;47.43;25.97;;;1.60;99.90;;;;;;4229063;27;20288;-60
2024/02/03 08:59:02;;;;;;;57.33;28.73;;;1.60;99.90;;;;;;4227744;27;20365;-62
2024/02/03 09:01:03;;;;;;;62.40;31.33;;;1.50;99.90;;;;;;4228038;28;20280;-61
2024/02/03 09:03:04;;;;;;;54.20;28.77;;;1.40;99.90;;;;;;4226744;28;20260;-62
2024/02/03 09:05:07;;;;;;;46.47;25.20;;;1.50;99.90;;;;;;4227403;28;20264;-63
2024/02/03 09:07:08;;;;;;;54.53;28.00;;;1.40;99.90;;;;;;4226793;28;20276;-62
2024/02/03 09:09:09;;;;;;;50.20;27.07;;;1.30;99.90;;;;;;4227519;28;20303;-61
2024/02/03 09:11:10;;;;;;;50.30;27.90;;;1.20;99.90;;;;;;4227550;28;20264;-60
2024/02/03 09:13:11;;;;;;;50.50;28.83;;;1.10;99.90;;;;;;4227206;28;20260;-61
2024/02/03 09:15:13;;;;;;;59.13;28.70;;;1.10;99.90;;;;;;4228386;28;20333;-61
2024/02/03 09:17:14;;;;;;;58.07;29.70;;;1.00;99.90;;;;;;4226503;28;20336;-60
2024/02/03 09:19:17;;;;;;;59.13;29.23;;;1.10;99.90;;;;;;4228038;28;20797;-61
2024/02/03 09:21:18;;;;;;;57.60;30.00;;;1.10;99.90;;;;;;4227350;27;20275;-61
2024/02/03 09:23:19;;;;;;;55.67;28.87;;;1.10;99.90;;;;;;4228271;28;20272;-60
2024/02/03 09:25:20;;;;;;;60.40;31.00;;;1.20;99.90;;;;;;4227309;28;20261;-59
2024/02/03 09:27:21;;;;;;;59.60;30.40;;;1.20;99.90;;;;;;4227931;28;20284;-61
2024/02/03 09:29:22;;;;;;;56.50;31.23;;;1.30;99.90;;;;;;4227008;28;20291;-63
2024/02/03 09:31:24;;;;;;;56.60;29.33;;;1.40;99.90;;;;;;4227679;28;20256;-61
2024/02/03 09:33:25;;;;;;;55.00;29.77;;;1.50;99.90;;;;;;4226353;28;20421;-59
2024/02/03 09:35:27;;;;;;;52.53;30.40;;;1.60;99.90;;;;;;4228148;28;20313;-61
2024/02/03 09:37:28;;;;;;;60.73;29.77;;;1.70;99.90;;;;;;4226694;28;20264;-57
2024/02/03 09:39:29;;;;;;;54.63;27.93;;;1.80;99.90;;;;;;4227158;28;20781;-60
2024/02/03 09:41:32;;;;;;;58.37;29.97;;;1.90;99.90;;;;;;4227833;28;20341;-59
2024/02/03 09:43:33;;;;;;;50.90;28.20;;;2.10;99.90;;;;;;4226856;28;20272;-61
2024/02/03 09:45:35;;;;;;;49.90;25.83;;;2.10;99.90;;;;;;4215822;28;20260;-60
2024/02/03 09:47:37;;;;;;;49.43;26.93;;;2.10;99.90;;;;;;4209974;28;20261;-60
2024/02/03 09:49:38;;;;;;;46.00;26.90;;;2.20;99.90;;;;;;4210881;28;20288;-62
2024/02/03 09:51:39;;;;;;;55.17;29.03;;;2.20;99.90;;;;;;4209913;28;20280;-61
2024/02/03 09:53:42;;;;;;;49.70;26.63;;;2.30;99.90;;;;;;4210951;28;20329;-60
2024/02/03 09:55:44;;;;;;;54.27;27.30;;;2.40;99.90;;;;;;4210522;28;20269;-61
2024/02/03 09:57:50;;;;;;;50.43;26.83;;;2.40;99.90;;;;;;4227802;28;20313;-61
2024/02/03 09:59:51;;;;;;;53.23;30.63;;;2.40;99.90;;;;;;4226284;28;20280;-62
2024/02/03 10:01:53;;;;;;;50.17;27.03;;;2.50;99.90;;;;;;4227927;28;20670;-62
2024/02/03 10:03:58;;;;;;;55.03;28.93;;;2.50;99.90;;;;;;4226590;28;20718;-62
2024/02/03 10:06:01;;;;;;;54.87;29.40;;;2.50;99.90;;;;;;4227458;28;20280;-60
2024/02/03 10:08:04;;;;;;;55.93;29.23;;;2.50;99.90;;;;;;4226679;28;20268;-62
2024/02/03 10:10:07;;;;;;;52.37;28.60;;;2.50;99.90;;;;;;4227892;28;20271;-62
2024/02/03 10:12:19;;;;;;;57.17;29.40;;;2.60;99.90;;;;;;4226922;28;20297;-62
2024/02/03 10:14:20;;;;;;;47.90;28.93;;;2.60;99.90;;;;;;4228422;28;20316;-61
2024/02/03 10:16:21;;;;;;;48.13;26.27;;;2.70;99.90;;;;;;4226595;28;20443;-62
2024/02/03 10:18:22;;;;;;;50.57;29.57;;;2.70;99.90;;;;;;4227018;28;20260;-61